Burlington, Indiana
Current Conditions -  °F | °C
As of 2:55 AM on Friday 31 Oct 2014 (Local Time) from KGGP Reporting Station
Broken Clouds Broken Clouds  
Wind Chill: 38°   Ceiling: 10000
Heat Index: 41°   Visibility: 10mi
Dew Point: 36°   Wind: 5mph
Humidity: 81%   Direction: 280°W
Pressure: 30.03"   Gusts: NA
Location:  40.48°N, 86.39°W
Report Text: KGGP 310655Z AUTO 28004KT 10SM SCT060 SCT070 BKN100 05/02 A3003 RMK AO2
Loading
Personal Weather Stations






























Interactive Weather Map
Tropical Storm Tracking
New forecast layout! Learn more

10-Day Weather Forecast

Advertisements
Track Severe Weather on mobile